createdAt,value
2022-12-09T00:05:41.135Z,72.17
2022-12-09T00:11:03.025Z,72.33
2022-12-09T00:16:25.569Z,72.46
2022-12-09T00:21:47.840Z,72.47
2022-12-09T00:27:10.088Z,72.37
2022-12-09T00:32:32.249Z,72.40
2022-12-09T00:37:54.453Z,72.54
2022-12-09T00:43:16.505Z,72.47
2022-12-09T00:48:39.691Z,72.60
2022-12-09T00:54:01.758Z,72.56
2022-12-09T00:59:23.732Z,72.69
2022-12-09T01:04:45.556Z,72.69
2022-12-09T01:10:10.037Z,72.58
2022-12-09T01:15:32.699Z,72.63
2022-12-09T01:20:59.369Z,72.85
2022-12-09T01:26:21.534Z,72.94
2022-12-09T01:31:43.881Z,73.14
2022-12-09T01:37:06.341Z,73.29
2022-12-09T01:42:28.397Z,73.48
2022-12-09T01:48:07.646Z,73.31
2022-12-09T01:53:33.455Z,73.45
2022-12-09T01:58:59.776Z,73.37
2022-12-09T02:04:21.689Z,73.22
2022-12-09T02:09:45.180Z,73.32
2022-12-09T02:15:35.677Z,73.22
2022-12-09T02:21:02.654Z,73.17
2022-12-09T02:26:35.187Z,73.42
2022-12-09T02:32:05.358Z,73.21
2022-12-09T02:37:42.433Z,73.18
2022-12-09T02:43:06.768Z,73.18
2022-12-09T02:48:33.559Z,73.26
2022-12-09T02:54:04.695Z,73.43
2022-12-09T02:59:28.359Z,73.42
2022-12-09T03:05:04.786Z,73.41
2022-12-09T03:10:38.153Z,73.32
2022-12-09T03:16:09.426Z,73.48
2022-12-09T03:21:33.017Z,73.45
2022-12-09T03:26:54.999Z,73.69
2022-12-09T03:32:19.560Z,73.61
2022-12-09T03:37:42.264Z,73.89
2022-12-09T03:43:14.055Z,73.97
2022-12-09T03:48:36.379Z,74.45
2022-12-09T03:54:35.003Z,74.34
2022-12-09T04:00:00.678Z,74.79
2022-12-09T04:05:22.633Z,74.74
2022-12-09T04:10:44.775Z,75.20
2022-12-09T04:16:07.232Z,75.13
2022-12-09T04:21:29.529Z,74.95
2022-12-09T04:26:52.156Z,74.87
2022-12-09T04:32:14.381Z,74.92
2022-12-09T04:37:37.973Z,74.84
2022-12-09T04:42:59.847Z,74.68
2022-12-09T04:48:21.807Z,74.78
2022-12-09T04:53:44.485Z,74.77
2022-12-09T04:59:07.252Z,74.90
2022-12-09T05:04:29.692Z,74.66
2022-12-09T05:09:51.609Z,74.62
2022-12-09T05:15:13.996Z,74.92
2022-12-09T05:20:39.529Z,75.00
2022-12-09T05:26:06.518Z,75.20
2022-12-09T05:31:29.033Z,75.14
2022-12-09T05:36:52.410Z,75.25
2022-12-09T05:42:14.473Z,75.79
2022-12-09T05:47:37.522Z,75.77
2022-12-09T05:52:59.835Z,75.54
2022-12-09T05:58:21.700Z,75.39
2022-12-09T06:03:43.920Z,75.47
2022-12-09T06:09:11.799Z,76.15
2022-12-09T06:14:34.264Z,76.02
2022-12-09T06:19:56.478Z,76.33
2022-12-09T06:25:18.792Z,76.53
2022-12-09T06:30:41.391Z,76.23
2022-12-09T06:36:05.308Z,76.26
2022-12-09T06:41:27.747Z,75.92
2022-12-09T06:46:50.395Z,75.62
2022-12-09T06:52:13.028Z,75.46
2022-12-09T06:57:35.702Z,75.38
2022-12-09T07:02:57.843Z,75.41
2022-12-09T07:08:20.543Z,75.80
2022-12-09T07:13:43.071Z,75.89
2022-12-09T07:19:06.193Z,75.26
2022-12-09T07:24:28.466Z,76.05
2022-12-09T07:29:50.619Z,75.61
2022-12-09T07:35:13.750Z,75.66
2022-12-09T07:40:36.444Z,75.73
2022-12-09T07:45:58.266Z,75.82
2022-12-09T07:51:22.387Z,75.44
2022-12-09T07:56:44.880Z,75.54
2022-12-09T08:02:07.067Z,75.30
2022-12-09T08:07:30.103Z,75.43
2022-12-09T08:12:52.400Z,75.25
2022-12-09T08:18:14.433Z,75.21
2022-12-09T08:23:38.035Z,75.20
2022-12-09T08:29:00.985Z,74.99
2022-12-09T08:34:23.181Z,75.32
2022-12-09T08:39:45.468Z,75.02
2022-12-09T08:45:08.565Z,74.74
2022-12-09T08:50:31.072Z,74.80
2022-12-09T08:55:53.378Z,75.27
2022-12-09T09:01:21.361Z,75.33
2022-12-09T09:06:45.828Z,75.29
2022-12-09T09:12:08.204Z,74.87
2022-12-09T09:17:30.074Z,74.76
2022-12-09T09:22:55.159Z,74.28
2022-12-09T09:28:21.033Z,74.34
2022-12-09T09:33:46.027Z,73.71
2022-12-09T09:39:08.457Z,73.08
2022-12-09T09:44:48.566Z,72.46
2022-12-09T09:50:33.640Z,71.89
2022-12-09T09:56:17.696Z,71.85
2022-12-09T10:01:40.445Z,70.75
2022-12-09T10:07:11.478Z,71.00
2022-12-09T10:13:06.912Z,70.92
2022-12-09T10:18:37.836Z,70.87
2022-12-09T10:24:18.236Z,70.68
2022-12-09T10:29:49.221Z,70.25
2022-12-09T10:35:16.881Z,69.56
2022-12-09T10:40:46.153Z,69.13
2022-12-09T10:46:21.200Z,68.51
2022-12-09T10:51:52.391Z,67.93
2022-12-09T10:57:14.429Z,67.44
2022-12-09T11:02:36.824Z,68.47
2022-12-09T11:07:59.644Z,68.20
2022-12-09T11:13:30.262Z,68.34
2022-12-09T11:18:52.239Z,68.73
2022-12-09T11:24:24.891Z,69.13
2022-12-09T11:29:46.893Z,69.17
2022-12-09T11:35:18.973Z,69.62
2022-12-09T11:40:41.417Z,67.84
2022-12-09T11:46:14.893Z,67.33
2022-12-09T11:51:40.084Z,67.51
2022-12-09T11:57:03.402Z,67.48
2022-12-09T12:03:11.421Z,67.98
2022-12-09T12:08:43.783Z,67.70
2022-12-09T12:14:16.979Z,67.88
2022-12-09T12:19:40.115Z,67.65
2022-12-09T12:25:14.010Z,67.40
2022-12-09T12:31:00.502Z,67.11
2022-12-09T12:36:28.477Z,67.54
2022-12-09T12:42:22.942Z,67.33
2022-12-09T12:47:54.898Z,67.50
2022-12-09T12:53:35.882Z,68.49
2022-12-09T12:59:05.213Z,68.84
2022-12-09T13:04:40.537Z,69.08
2022-12-09T13:10:09.148Z,68.99
2022-12-09T13:15:38.105Z,69.24
2022-12-09T13:21:01.666Z,69.35
2022-12-09T13:26:41.125Z,69.29
2022-12-09T13:32:14.794Z,69.51
2022-12-09T13:37:36.667Z,69.40
2022-12-09T13:43:05.104Z,69.61
2022-12-09T13:48:30.024Z,69.62
2022-12-09T13:54:03.036Z,70.19
2022-12-09T13:59:44.025Z,70.86
2022-12-09T14:05:26.142Z,71.98
2022-12-09T14:10:50.419Z,73.20
2022-12-09T14:16:26.418Z,73.19
2022-12-09T14:22:21.239Z,73.16
2022-12-09T14:28:11.773Z,72.95
2022-12-09T14:33:36.409Z,73.14
2022-12-09T14:39:24.741Z,73.33
2022-12-09T14:44:57.142Z,73.51
2022-12-09T14:50:21.886Z,73.39
2022-12-09T14:55:43.780Z,73.39
2022-12-09T15:01:06.398Z,73.22
2022-12-09T15:06:28.535Z,73.65
2022-12-09T15:11:50.188Z,73.97
2022-12-09T15:17:40.689Z,74.40
2022-12-09T15:23:06.052Z,75.16
2022-12-09T15:28:30.265Z,75.55
2022-12-09T15:33:54.508Z,75.64
2022-12-09T15:39:32.396Z,76.12
2022-12-09T15:45:06.006Z,76.93
2022-12-09T15:50:33.352Z,77.47
2022-12-09T15:55:59.197Z,77.82
2022-12-09T16:01:28.749Z,78.07
2022-12-09T16:06:51.040Z,77.89
2022-12-09T16:12:27.953Z,78.52
2022-12-09T16:17:55.771Z,78.65
2022-12-09T16:23:22.137Z,78.70
2022-12-09T16:28:43.943Z,78.61
2022-12-09T16:34:05.972Z,79.20
2022-12-09T16:39:28.005Z,79.14
2022-12-09T16:44:50.031Z,79.30
2022-12-09T16:50:12.077Z,79.16
2022-12-09T16:55:34.093Z,79.35
2022-12-09T17:00:57.287Z,79.35
2022-12-09T17:06:20.762Z,79.47
2022-12-09T17:11:48.395Z,79.35
2022-12-09T17:17:10.871Z,79.45
2022-12-09T17:22:32.915Z,79.82
2022-12-09T17:27:54.899Z,79.99
2022-12-09T17:33:17.229Z,79.73
2022-12-09T17:38:39.260Z,79.86
2022-12-09T17:44:01.267Z,80.10
2022-12-09T17:49:23.519Z,80.13
2022-12-09T17:54:46.051Z,80.29
2022-12-09T18:00:08.744Z,80.44
2022-12-09T18:05:38.640Z,80.18
2022-12-09T18:11:06.389Z,80.55
2022-12-09T18:16:29.222Z,80.42
2022-12-09T18:21:51.455Z,80.39
2022-12-09T18:27:13.285Z,80.76
2022-12-09T18:32:36.374Z,81.03
2022-12-09T18:38:07.028Z,81.29
2022-12-09T18:43:36.518Z,80.84
2022-12-09T18:49:00.446Z,80.85
2022-12-09T18:54:24.603Z,80.70
2022-12-09T18:59:48.643Z,81.26
2022-12-09T19:05:10.670Z,80.91
2022-12-09T19:10:32.803Z,81.24
2022-12-09T19:15:54.790Z,81.12
2022-12-09T19:21:18.970Z,81.17
2022-12-09T19:26:42.771Z,81.20
2022-12-09T19:32:13.957Z,81.25
2022-12-09T19:37:45.930Z,80.90
2022-12-09T19:43:07.760Z,80.95
2022-12-09T19:48:29.989Z,80.88
2022-12-09T19:53:57.533Z,80.89
2022-12-09T19:59:19.670Z,80.55
2022-12-09T20:04:50.405Z,80.93
2022-12-09T20:10:12.223Z,80.78
2022-12-09T20:15:37.193Z,80.63
2022-12-09T20:21:08.067Z,80.34
2022-12-09T20:26:32.901Z,80.23
2022-12-09T20:31:54.693Z,80.30
2022-12-09T20:37:16.858Z,80.73
2022-12-09T20:42:38.749Z,80.53
2022-12-09T20:48:00.516Z,80.53
2022-12-09T20:53:22.652Z,80.15
2022-12-09T20:58:45.880Z,79.89
2022-12-09T21:04:08.522Z,79.87
2022-12-09T21:09:31.544Z,80.08
2022-12-09T21:14:53.273Z,80.08
2022-12-09T21:20:15.403Z,79.82
2022-12-09T21:25:37.140Z,79.35
2022-12-09T21:30:59.767Z,79.57
2022-12-09T21:36:25.040Z,79.40
2022-12-09T21:41:46.936Z,79.52
2022-12-09T21:47:09.064Z,79.27
2022-12-09T21:52:30.994Z,79.48
2022-12-09T21:57:52.724Z,79.32
2022-12-09T22:03:14.655Z,79.27
2022-12-09T22:08:37.986Z,79.68
2022-12-09T22:14:00.620Z,79.52
2022-12-09T22:19:22.851Z,79.39
2022-12-09T22:24:45.242Z,79.51
2022-12-09T22:30:08.485Z,79.55
2022-12-09T22:35:30.782Z,79.58
2022-12-09T22:40:52.878Z,79.27
2022-12-09T22:46:17.383Z,79.78
2022-12-09T22:51:39.946Z,79.25
2022-12-09T22:57:01.779Z,79.19
2022-12-09T23:02:24.076Z,79.15
2022-12-09T23:07:45.866Z,78.97
2022-12-09T23:13:07.966Z,79.07
2022-12-09T23:18:31.178Z,78.65
2022-12-09T23:23:58.262Z,79.15
2022-12-09T23:29:20.072Z,78.93
2022-12-09T23:34:42.510Z,78.97
2022-12-09T23:40:05.432Z,79.03
2022-12-09T23:45:27.667Z,78.89
2022-12-09T23:50:49.398Z,78.88
2022-12-09T23:56:13.750Z,78.98
